createdAt,value
2018-03-23T00:00:57.312Z,18.27
2018-03-23T00:02:58.256Z,19.23
2018-03-23T00:04:59.199Z,15.43
2018-03-23T00:07:00.198Z,18.50
2018-03-23T00:09:01.159Z,15.60
2018-03-23T00:11:02.169Z,16.00
2018-03-23T00:13:03.111Z,17.80
2018-03-23T00:15:04.893Z,16.73
2018-03-23T00:17:06.038Z,16.90
2018-03-23T00:19:07.061Z,17.63
2018-03-23T00:21:08.805Z,19.25
2018-03-23T00:23:09.830Z,17.87
2018-03-23T00:25:10.859Z,17.27
2018-03-23T00:27:12.049Z,18.30
2018-03-23T00:29:13.855Z,21.17
2018-03-23T00:31:15.084Z,19.50
2018-03-23T00:33:16.937Z,18.20
2018-03-23T00:35:17.965Z,19.35
2018-03-23T00:37:19.007Z,18.33
2018-03-23T00:39:20.031Z,17.27
2018-03-23T00:41:21.130Z,17.73
2018-03-23T00:43:22.088Z,18.03
2018-03-23T00:45:23.049Z,16.13
2018-03-23T00:47:24.943Z,18.60
2018-03-23T00:49:25.916Z,18.00
2018-03-23T00:51:26.961Z,19.47
2018-03-23T00:53:28.169Z,18.47
2018-03-23T00:55:29.239Z,18.10
2018-03-23T00:57:33.000Z,17.90
2018-03-23T00:59:34.197Z,19.47
2018-03-23T01:01:35.145Z,19.43
2018-03-23T01:03:36.161Z,19.77
2018-03-23T01:05:37.888Z,20.07
2018-03-23T01:07:38.902Z,20.00
2018-03-23T01:09:40.077Z,21.55
2018-03-23T01:11:41.153Z,22.00
2018-03-23T01:13:42.834Z,19.80
2018-03-23T01:15:44.626Z,20.97
2018-03-23T01:17:45.654Z,19.90
2018-03-23T01:19:47.432Z,20.10
2018-03-23T01:21:48.466Z,19.90
2018-03-23T01:23:49.438Z,26.58
2018-03-23T01:25:50.501Z,24.07
2018-03-23T01:27:51.508Z,21.10
2018-03-23T01:29:53.231Z,25.23
2018-03-23T01:31:54.211Z,21.73
2018-03-23T01:33:55.932Z,22.40
2018-03-23T01:35:56.920Z,22.73
2018-03-23T01:37:58.704Z,21.07
2018-03-23T01:39:59.710Z,18.73
2018-03-23T01:42:00.667Z,16.37
2018-03-23T01:44:02.396Z,17.53
2018-03-23T01:46:03.349Z,17.37
2018-03-23T01:48:04.493Z,11.90
2018-03-23T01:50:05.505Z,14.40
2018-03-23T01:52:06.562Z,13.57
2018-03-23T01:54:07.581Z,11.60
2018-03-23T01:56:08.693Z,9.20
2018-03-23T01:58:10.493Z,8.97
2018-03-23T02:00:12.252Z,7.13
2018-03-23T02:02:13.989Z,6.80
2018-03-23T02:04:15.013Z,6.17
2018-03-23T02:06:15.995Z,5.90
2018-03-23T02:08:17.238Z,6.17
2018-03-23T02:10:18.295Z,6.70
2018-03-23T02:12:19.333Z,6.80
2018-03-23T02:14:20.382Z,5.90
2018-03-23T02:16:21.402Z,7.33
2018-03-23T02:18:22.430Z,6.57
2018-03-23T02:20:23.473Z,8.10
2018-03-23T02:22:24.491Z,7.50
2018-03-23T02:24:25.632Z,7.37
2018-03-23T02:26:26.699Z,7.10
2018-03-23T02:28:28.436Z,8.30
2018-03-23T02:30:29.550Z,6.73
2018-03-23T02:32:30.625Z,7.37
2018-03-23T02:34:31.633Z,7.53
2018-03-23T02:36:32.614Z,6.90
2018-03-23T02:38:33.659Z,6.23
2018-03-23T02:40:34.632Z,6.43
2018-03-23T02:42:35.653Z,6.13
2018-03-23T02:44:36.640Z,7.07
2018-03-23T02:46:38.361Z,7.00
2018-03-23T02:48:39.348Z,6.20
2018-03-23T02:50:41.078Z,7.70
2018-03-23T02:52:42.085Z,7.10
2018-03-23T02:54:43.167Z,6.80
2018-03-23T02:56:44.978Z,7.00
2018-03-23T02:58:46.131Z,7.03
2018-03-23T03:00:47.113Z,7.17
2018-03-23T03:02:48.089Z,6.23
2018-03-23T03:04:49.038Z,7.07
2018-03-23T03:06:50.122Z,6.63
2018-03-23T03:08:51.093Z,6.87
2018-03-23T03:10:52.056Z,6.87
2018-03-23T03:12:53.084Z,7.23
2018-03-23T03:14:54.066Z,7.83
2018-03-23T03:16:55.120Z,7.43
2018-03-23T03:18:56.089Z,7.90
2018-03-23T03:20:57.797Z,7.10
2018-03-23T03:22:58.756Z,7.33
2018-03-23T03:24:59.820Z,7.00
2018-03-23T03:27:00.887Z,6.80
2018-03-23T03:29:02.681Z,6.80
2018-03-23T03:31:03.642Z,7.40
2018-03-23T03:33:04.613Z,8.30
2018-03-23T03:35:05.588Z,7.20
2018-03-23T03:37:06.572Z,8.20
2018-03-23T03:39:07.546Z,8.17
2018-03-23T03:41:08.606Z,8.93
2018-03-23T03:43:09.632Z,9.67
2018-03-23T03:45:10.684Z,9.30
2018-03-23T03:47:11.700Z,8.07
2018-03-23T03:49:13.412Z,9.93
2018-03-23T03:51:14.440Z,10.10
2018-03-23T03:53:15.436Z,10.07
2018-03-23T03:55:16.404Z,10.43
2018-03-23T03:57:17.401Z,9.40
2018-03-23T03:59:18.420Z,9.77
2018-03-23T04:01:19.361Z,9.50
2018-03-23T04:03:20.340Z,10.00
2018-03-23T04:05:21.310Z,9.57
2018-03-23T04:07:22.292Z,8.70
2018-03-23T04:09:23.300Z,9.70
2018-03-23T04:11:24.240Z,9.50
2018-03-23T04:13:25.232Z,9.57
2018-03-23T04:15:26.221Z,10.93
2018-03-23T04:17:27.175Z,10.87
2018-03-23T04:19:28.131Z,11.40
2018-03-23T04:21:29.127Z,11.17
2018-03-23T04:23:30.189Z,13.30
2018-03-23T04:25:31.208Z,11.93
2018-03-23T04:27:32.177Z,12.60
2018-03-23T04:29:33.152Z,11.60
2018-03-23T04:31:34.132Z,17.77
2018-03-23T04:33:35.092Z,14.70
2018-03-23T04:35:36.048Z,13.93
2018-03-23T04:37:37.000Z,17.40
2018-03-23T04:39:37.979Z,16.13
2018-03-23T04:41:38.946Z,15.10
2018-03-23T04:43:39.887Z,15.10
2018-03-23T04:45:40.849Z,15.80
2018-03-23T04:47:42.540Z,15.27
2018-03-23T04:49:43.485Z,14.60
2018-03-23T04:51:44.484Z,19.48
2018-03-23T04:53:46.232Z,16.90
2018-03-23T04:55:47.209Z,16.17
2018-03-23T04:57:48.896Z,16.67
2018-03-23T04:59:49.903Z,14.00
2018-03-23T05:01:51.683Z,15.43
2018-03-23T05:03:53.491Z,16.77
2018-03-23T05:05:54.456Z,16.93
2018-03-23T05:07:55.461Z,15.63
2018-03-23T05:09:56.435Z,14.53
2018-03-23T05:11:57.396Z,16.33
2018-03-23T05:13:58.375Z,15.20
2018-03-23T05:15:59.356Z,17.00
2018-03-23T05:18:00.328Z,19.50
2018-03-23T05:20:01.288Z,18.93
2018-03-23T05:22:02.254Z,19.10
2018-03-23T05:24:03.208Z,17.73
2018-03-23T05:26:04.912Z,16.27
2018-03-23T05:28:05.941Z,15.40
2018-03-23T05:30:06.972Z,15.80
2018-03-23T05:32:07.941Z,14.43
2018-03-23T05:34:08.941Z,18.37
2018-03-23T05:36:10.740Z,16.37
2018-03-23T05:38:11.707Z,24.40
2018-03-23T05:40:12.657Z,19.73
2018-03-23T05:42:13.716Z,18.17
2018-03-23T05:44:14.684Z,19.83
2018-03-23T05:46:15.655Z,18.50
2018-03-23T05:48:16.623Z,18.30
2018-03-23T05:50:17.597Z,17.90
2018-03-23T05:52:18.647Z,16.43
2018-03-23T05:54:19.893Z,16.27
2018-03-23T05:56:21.688Z,17.57
2018-03-23T05:58:22.677Z,18.60
2018-03-23T06:00:24.360Z,17.73
2018-03-23T06:02:27.732Z,18.10
2018-03-23T06:04:28.751Z,25.90
2018-03-23T06:06:29.790Z,19.77
2018-03-23T06:08:30.784Z,18.67
2018-03-23T06:10:31.784Z,18.03
2018-03-23T06:12:33.140Z,19.27
2018-03-23T06:14:34.415Z,17.77
2018-03-23T06:16:35.402Z,18.98
2018-03-23T06:18:36.628Z,17.07
2018-03-23T06:20:38.036Z,14.37
2018-03-23T06:22:39.125Z,17.73
2018-03-23T06:24:40.064Z,22.60
2018-03-23T06:26:41.061Z,18.70
2018-03-23T06:28:42.047Z,18.20
2018-03-23T06:30:43.050Z,17.20
2018-03-23T06:32:44.084Z,17.50
2018-03-23T06:34:45.049Z,16.53
2018-03-23T06:36:45.981Z,15.60
2018-03-23T06:38:46.935Z,15.47
2018-03-23T06:40:48.242Z,16.27
2018-03-23T06:42:49.236Z,14.97
2018-03-23T06:44:50.239Z,14.23
2018-03-23T06:46:52.356Z,14.07
2018-03-23T06:48:53.556Z,14.70
2018-03-23T06:50:55.247Z,18.48
2018-03-23T06:52:56.251Z,16.47
2018-03-23T06:54:57.245Z,52.63
2018-03-23T06:56:58.208Z,19.10
2018-03-23T06:58:59.494Z,14.90
2018-03-23T07:01:00.482Z,15.10
2018-03-23T07:03:02.187Z,13.80
2018-03-23T07:05:03.130Z,14.77
2018-03-23T07:07:04.068Z,12.90
2018-03-23T07:09:05.033Z,15.43
2018-03-23T07:11:06.004Z,19.87
2018-03-23T07:13:06.944Z,17.87
2018-03-23T07:15:07.953Z,13.97
2018-03-23T07:17:08.993Z,13.53
2018-03-23T07:19:10.256Z,14.40
2018-03-23T07:21:11.284Z,12.60
2018-03-23T07:23:12.293Z,26.87
2018-03-23T07:25:13.291Z,13.50
2018-03-23T07:27:14.253Z,13.90
2018-03-23T07:29:15.223Z,12.67
2018-03-23T07:31:16.193Z,11.73
2018-03-23T07:33:18.052Z,11.90
2018-03-23T07:35:19.036Z,12.53
2018-03-23T07:37:19.976Z,13.25
2018-03-23T07:39:20.945Z,11.27
2018-03-23T07:41:22.080Z,13.10
2018-03-23T07:43:23.052Z,11.47
2018-03-23T07:45:24.004Z,15.30
2018-03-23T07:47:24.935Z,13.70
2018-03-23T07:49:25.918Z,11.53
2018-03-23T07:51:27.789Z,13.70
2018-03-23T07:53:29.487Z,16.87
2018-03-23T07:55:30.429Z,13.47
2018-03-23T07:57:31.355Z,14.10
2018-03-23T07:59:33.058Z,15.87
2018-03-23T08:01:34.011Z,13.50
2018-03-23T08:03:34.979Z,12.80
2018-03-23T08:05:35.899Z,12.53
2018-03-23T08:07:36.852Z,12.10
2018-03-23T08:09:38.788Z,13.40
2018-03-23T08:11:39.804Z,13.45
2018-03-23T08:13:41.583Z,12.93
2018-03-23T08:15:42.814Z,15.67
2018-03-23T08:17:44.543Z,13.67
2018-03-23T08:19:45.487Z,14.27
2018-03-23T08:21:46.487Z,13.90
2018-03-23T08:23:47.718Z,13.87
2018-03-23T08:25:49.428Z,16.20
2018-03-23T08:27:50.534Z,15.67
2018-03-23T08:29:51.545Z,15.57
2018-03-23T08:31:52.515Z,13.90
2018-03-23T08:33:53.464Z,13.63
2018-03-23T08:35:54.436Z,13.50
2018-03-23T08:37:55.383Z,14.73
2018-03-23T08:39:57.212Z,15.90
2018-03-23T08:41:59.001Z,14.20
2018-03-23T08:44:00.034Z,11.50
2018-03-23T08:46:00.917Z,11.70
2018-03-23T08:48:02.087Z,11.70
2018-03-23T08:50:03.056Z,13.30
2018-03-23T08:52:04.156Z,13.27
2018-03-23T08:54:05.254Z,12.90
2018-03-23T08:56:06.237Z,11.97
2018-03-23T08:58:07.192Z,13.10
2018-03-23T09:00:08.879Z,13.13
2018-03-23T09:02:09.860Z,12.90
2018-03-23T09:04:11.603Z,13.80
2018-03-23T09:06:12.555Z,12.30
2018-03-23T09:08:13.909Z,14.97
2018-03-23T09:10:14.919Z,12.00
2018-03-23T09:12:15.876Z,12.53
2018-03-23T09:14:16.835Z,17.90
2018-03-23T09:16:17.787Z,14.27
2018-03-23T09:18:19.478Z,13.73
2018-03-23T09:20:20.476Z,12.50
2018-03-23T09:22:21.457Z,13.57
2018-03-23T09:24:22.452Z,13.30
2018-03-23T09:26:23.407Z,12.00
2018-03-23T09:28:24.357Z,13.40
2018-03-23T09:30:25.460Z,12.03
2018-03-23T09:32:27.163Z,12.40
2018-03-23T09:34:28.156Z,11.87
2018-03-23T09:36:29.095Z,13.50
2018-03-23T09:38:30.046Z,11.00
2018-03-23T09:40:30.999Z,11.80
2018-03-23T09:42:31.943Z,9.70
2018-03-23T09:44:32.932Z,10.07
2018-03-23T09:46:34.623Z,9.60
2018-03-23T09:48:35.577Z,10.50
2018-03-23T09:50:36.632Z,10.53
2018-03-23T09:52:37.727Z,9.97
2018-03-23T09:54:38.684Z,8.93
2018-03-23T09:56:41.798Z,8.93
2018-03-23T09:58:42.799Z,10.40
2018-03-23T10:00:43.768Z,11.30
2018-03-23T10:02:45.471Z,13.20
2018-03-23T10:04:46.431Z,11.80
2018-03-23T10:06:47.417Z,11.37
2018-03-23T10:08:49.121Z,11.32
2018-03-23T10:10:50.075Z,11.17
2018-03-23T10:12:51.021Z,11.03
2018-03-23T10:14:52.100Z,11.23
2018-03-23T10:16:53.043Z,13.15
2018-03-23T10:18:53.980Z,11.37
2018-03-23T10:20:54.925Z,11.40
2018-03-23T10:22:55.883Z,11.50
2018-03-23T10:24:56.850Z,11.23
2018-03-23T10:26:58.545Z,10.07
2018-03-23T10:28:59.553Z,10.20
2018-03-23T10:31:00.462Z,13.30
2018-03-23T10:33:02.537Z,11.90
2018-03-23T10:35:03.530Z,11.10
2018-03-23T10:37:04.468Z,11.27
2018-03-23T10:39:05.416Z,11.23
2018-03-23T10:41:07.177Z,10.17
2018-03-23T10:43:08.875Z,9.57
2018-03-23T10:45:09.860Z,11.07
2018-03-23T10:47:10.804Z,10.23
2018-03-23T10:49:11.861Z,9.30
2018-03-23T10:51:12.826Z,12.30
2018-03-23T10:53:14.511Z,10.97
2018-03-23T10:55:15.485Z,10.80
2018-03-23T10:57:16.436Z,9.50
2018-03-23T10:59:17.384Z,11.20
2018-03-23T11:01:24.498Z,9.43
2018-03-23T11:03:25.444Z,9.23
2018-03-23T11:05:26.409Z,10.23
2018-03-23T11:07:28.344Z,9.83
2018-03-23T11:09:29.328Z,11.20
2018-03-23T11:11:31.007Z,9.77
2018-03-23T11:13:31.952Z,9.73
2018-03-23T11:15:32.883Z,9.33
2018-03-23T11:17:34.564Z,10.00
2018-03-23T11:19:35.517Z,9.30
2018-03-23T11:21:36.452Z,9.17
2018-03-23T11:23:39.452Z,10.30
2018-03-23T11:25:40.800Z,10.50
2018-03-23T11:27:42.774Z,10.40
2018-03-23T11:29:44.601Z,10.73
2018-03-23T11:31:45.628Z,9.70
2018-03-23T11:33:46.576Z,10.33
2018-03-23T11:35:48.818Z,10.00
2018-03-23T11:37:49.811Z,9.67
2018-03-23T11:39:50.756Z,9.43
2018-03-23T11:41:51.906Z,9.73
2018-03-23T11:43:53.176Z,11.60
2018-03-23T11:45:54.873Z,11.10
2018-03-23T11:47:55.820Z,10.17
2018-03-23T11:49:56.786Z,10.47
2018-03-23T11:51:58.036Z,11.87
2018-03-23T11:53:59.007Z,10.50
2018-03-23T11:55:59.952Z,12.00
2018-03-23T11:58:02.049Z,11.23
2018-03-23T12:00:03.032Z,10.77
2018-03-23T12:02:04.975Z,12.30
2018-03-23T12:04:05.948Z,11.03
2018-03-23T12:06:06.951Z,10.70
2018-03-23T12:08:08.702Z,12.10
2018-03-23T12:10:09.647Z,11.80
2018-03-23T12:12:10.861Z,12.97
2018-03-23T12:14:11.837Z,12.87
2018-03-23T12:16:12.819Z,12.23
2018-03-23T12:18:14.496Z,12.20
2018-03-23T12:20:15.444Z,10.93
2018-03-23T12:22:17.600Z,12.35
2018-03-23T12:24:18.620Z,10.43
2018-03-23T12:26:19.606Z,11.63
2018-03-23T12:28:21.643Z,11.80
2018-03-23T12:30:23.379Z,11.13
2018-03-23T12:32:24.347Z,11.63
2018-03-23T12:34:25.376Z,12.17
2018-03-23T12:36:26.600Z,12.23
2018-03-23T12:38:28.308Z,11.60
2018-03-23T12:40:29.855Z,12.40
2018-03-23T12:42:31.631Z,12.43
2018-03-23T12:44:32.563Z,12.00
2018-03-23T12:46:34.063Z,12.80
2018-03-23T12:48:35.086Z,13.00
2018-03-23T12:50:37.152Z,13.30
2018-03-23T12:52:38.899Z,13.60
2018-03-23T12:54:40.639Z,13.13
2018-03-23T12:56:42.406Z,12.90
2018-03-23T12:58:48.340Z,14.07
2018-03-23T13:00:50.984Z,12.13
2018-03-23T13:02:54.504Z,14.07
2018-03-23T13:04:57.036Z,13.37
2018-03-23T13:06:58.092Z,14.87
2018-03-23T13:08:59.045Z,15.30
2018-03-23T13:11:00.678Z,14.77
2018-03-23T13:13:02.359Z,15.03
2018-03-23T13:15:03.911Z,14.13
2018-03-23T13:17:08.677Z,16.17
2018-03-23T13:19:09.715Z,13.20
2018-03-23T13:21:10.751Z,17.98
2018-03-23T13:23:11.775Z,17.40
2018-03-23T13:25:24.121Z,14.47
2018-03-23T13:27:25.783Z,15.27
2018-03-23T13:29:26.724Z,15.30
2018-03-23T13:31:27.715Z,14.97
2018-03-23T13:33:29.419Z,15.30
2018-03-23T13:35:30.525Z,18.20
2018-03-23T13:37:32.863Z,16.17
2018-03-23T13:39:33.791Z,17.00
2018-03-23T13:41:34.763Z,18.55
2018-03-23T13:43:41.054Z,17.50
2018-03-23T13:45:43.039Z,17.00
2018-03-23T13:47:44.019Z,17.37
2018-03-23T13:49:44.985Z,15.33
2018-03-23T13:51:45.933Z,17.33
2018-03-23T13:53:46.934Z,17.10
2018-03-23T13:55:49.213Z,16.23
2018-03-23T13:57:50.956Z,15.53
2018-03-23T13:59:57.964Z,17.07
2018-03-23T14:01:59.080Z,16.03
2018-03-23T14:04:00.085Z,15.73
2018-03-23T14:06:01.060Z,16.10
2018-03-23T14:08:02.034Z,14.97
2018-03-23T14:10:18.767Z,15.10
2018-03-23T14:12:26.720Z,14.03
2018-03-23T14:14:27.719Z,15.23
2018-03-23T14:16:40.397Z,16.20
2018-03-23T14:18:41.609Z,14.63
2018-03-23T14:20:46.764Z,16.00
2018-03-23T14:22:55.483Z,15.00
2018-03-23T14:25:01.429Z,14.15
2018-03-23T14:32:00.837Z,16.10
2018-03-23T14:34:01.941Z,17.03
2018-03-23T14:38:26.942Z,17.90
2018-03-23T14:40:27.925Z,20.73
2018-03-23T14:42:29.933Z,21.70
2018-03-23T14:44:30.905Z,19.20
2018-03-23T14:46:34.780Z,19.87
2018-03-23T14:48:35.958Z,18.20
2018-03-23T14:50:38.676Z,19.77
2018-03-23T14:52:39.825Z,21.17
2018-03-23T14:54:42.421Z,22.10
2018-03-23T14:56:43.425Z,18.67
2018-03-23T14:58:50.497Z,19.63
2018-03-23T15:01:04.315Z,18.97
2018-03-23T15:03:05.509Z,20.50
2018-03-23T15:05:06.481Z,20.43
2018-03-23T15:07:07.485Z,21.07
2018-03-23T15:09:08.460Z,21.10
2018-03-23T15:11:13.300Z,22.23
2018-03-23T15:13:14.313Z,20.60
2018-03-23T15:15:15.362Z,24.10
2018-03-23T15:17:16.371Z,24.42
2018-03-23T15:19:19.114Z,23.37
2018-03-23T15:21:20.158Z,21.80
2018-03-23T15:23:21.150Z,21.67
2018-03-23T15:25:22.125Z,22.70
2018-03-23T15:27:23.849Z,23.30
2018-03-23T15:29:24.847Z,24.10
2018-03-23T15:31:25.849Z,19.63
2018-03-23T15:33:26.809Z,20.43
2018-03-23T15:35:27.825Z,20.47
2018-03-23T15:37:28.838Z,22.53
2018-03-23T15:39:29.855Z,22.75
2018-03-23T15:41:31.565Z,23.23
2018-03-23T15:43:32.582Z,23.43
2018-03-23T15:45:42.854Z,22.63
2018-03-23T15:47:43.847Z,27.45
2018-03-23T15:49:44.901Z,23.00
2018-03-23T15:51:46.652Z,24.20
2018-03-23T15:53:47.617Z,22.63
2018-03-23T15:55:48.594Z,22.23
2018-03-23T15:57:50.302Z,20.97
2018-03-23T15:59:51.278Z,19.83
2018-03-23T16:01:52.324Z,24.48
2018-03-23T16:03:57.452Z,24.13
2018-03-23T16:05:58.530Z,21.30
2018-03-23T16:08:04.513Z,20.17
2018-03-23T16:10:05.651Z,21.70
2018-03-23T16:12:06.648Z,22.17
2018-03-23T16:14:07.615Z,20.67
2018-03-23T16:16:08.604Z,21.27
2018-03-23T16:18:09.589Z,20.97
2018-03-23T16:20:10.549Z,20.83
2018-03-23T16:22:11.546Z,21.20
2018-03-23T16:24:12.555Z,21.00
2018-03-23T16:26:13.544Z,22.27
2018-03-23T16:28:14.552Z,19.97
2018-03-23T16:30:17.461Z,20.20
2018-03-23T16:32:18.557Z,21.07
2018-03-23T16:34:19.538Z,20.77
2018-03-23T16:36:20.528Z,21.20
2018-03-23T16:38:21.524Z,25.50
2018-03-23T16:40:25.748Z,23.40
2018-03-23T16:42:26.825Z,20.67
2018-03-23T16:44:29.488Z,20.83
2018-03-23T16:46:30.553Z,20.20
2018-03-23T16:48:32.233Z,20.20
2018-03-23T16:50:33.940Z,20.40
2018-03-23T16:52:34.930Z,23.50
2018-03-23T16:54:35.900Z,21.10
2018-03-23T16:56:36.872Z,22.00
2018-03-23T16:58:37.870Z,21.30
2018-03-23T17:00:39.706Z,27.63
2018-03-23T17:02:40.721Z,23.93
2018-03-23T17:04:41.728Z,22.80
2018-03-23T17:06:43.480Z,21.80
2018-03-23T17:08:44.459Z,21.57
2018-03-23T17:10:45.420Z,22.70
2018-03-23T17:12:46.552Z,21.50
2018-03-23T17:14:47.566Z,26.80
2018-03-23T17:16:48.588Z,24.40
2018-03-23T17:18:49.572Z,23.53
2018-03-23T17:20:51.308Z,24.27
2018-03-23T17:22:52.263Z,22.70
2018-03-23T17:24:53.992Z,23.80
2018-03-23T17:26:54.992Z,23.03
2018-03-23T17:28:56.027Z,25.37
2018-03-23T17:30:57.000Z,24.83
2018-03-23T17:32:57.948Z,24.20
2018-03-23T17:34:59.045Z,22.93
2018-03-23T17:37:00.095Z,22.83
2018-03-23T17:39:01.072Z,24.37
2018-03-23T17:41:02.016Z,23.07
2018-03-23T17:43:02.985Z,22.60
2018-03-23T17:45:03.948Z,23.50
2018-03-23T17:47:05.014Z,23.20
2018-03-23T17:49:05.959Z,23.90
2018-03-23T17:51:07.067Z,26.92
2018-03-23T17:53:08.058Z,28.60
2018-03-23T17:55:09.089Z,27.33
2018-03-23T17:57:10.041Z,28.20
2018-03-23T17:59:11.076Z,26.87
2018-03-23T18:01:15.340Z,26.07
2018-03-23T18:03:24.724Z,26.50
2018-03-23T18:05:26.498Z,28.00
2018-03-23T18:07:29.830Z,24.00
2018-03-23T18:09:30.981Z,25.90
2018-03-23T18:11:32.029Z,24.47
2018-03-23T18:13:35.729Z,31.87
2018-03-23T18:15:45.402Z,30.07
2018-03-23T18:17:46.413Z,26.23
2018-03-23T18:19:47.381Z,29.83
2018-03-23T18:21:48.345Z,28.03
2018-03-23T18:23:49.300Z,27.50
2018-03-23T18:25:50.264Z,26.90
2018-03-23T18:27:51.287Z,32.50
2018-03-23T18:29:52.287Z,27.87
2018-03-23T18:31:55.182Z,25.70
2018-03-23T18:33:56.257Z,27.35
2018-03-23T18:35:57.446Z,26.00
2018-03-23T18:37:58.392Z,25.43
2018-03-23T18:39:59.367Z,26.93
2018-03-23T18:42:00.380Z,26.13
2018-03-23T18:44:01.362Z,26.97
2018-03-23T18:46:02.324Z,31.37
2018-03-23T18:48:03.307Z,28.67
2018-03-23T18:50:04.556Z,29.63
2018-03-23T18:52:05.661Z,27.93
2018-03-23T18:54:06.660Z,30.07
2018-03-23T18:56:09.232Z,32.08
2018-03-23T18:58:10.579Z,30.20
2018-03-23T19:00:11.844Z,29.67
2018-03-23T19:02:12.867Z,31.27
2018-03-23T19:04:13.809Z,31.03
2018-03-23T19:06:14.792Z,30.50
2018-03-23T19:08:15.804Z,34.30
2018-03-23T19:10:16.934Z,36.72
2018-03-23T19:12:17.975Z,34.40
2018-03-23T19:14:19.008Z,34.33
2018-03-23T19:16:19.970Z,34.17
2018-03-23T19:18:21.206Z,34.20
2018-03-23T19:20:22.173Z,34.37
2018-03-23T19:22:23.637Z,34.10
2018-03-23T19:24:24.668Z,37.87
2018-03-23T19:26:25.653Z,33.00
2018-03-23T19:28:26.621Z,36.83
2018-03-23T19:30:27.578Z,38.57
2018-03-23T19:32:28.544Z,34.30
2018-03-23T19:34:31.539Z,33.53
2018-03-23T19:36:33.647Z,34.93
2018-03-23T19:38:34.660Z,34.13
2018-03-23T19:40:35.599Z,35.10
2018-03-23T19:42:37.420Z,34.70
2018-03-23T19:44:38.589Z,37.80
2018-03-23T19:46:40.353Z,35.93
2018-03-23T19:48:41.891Z,33.80
2018-03-23T19:50:42.947Z,32.17
2018-03-23T19:52:43.919Z,31.63
2018-03-23T19:54:44.959Z,27.43
2018-03-23T19:56:45.892Z,27.83
2018-03-23T19:58:47.267Z,28.20
2018-03-23T20:00:48.475Z,28.40
2018-03-23T20:02:49.530Z,25.80
2018-03-23T20:04:51.824Z,28.33
2018-03-23T20:06:53.130Z,27.73
2018-03-23T20:08:54.449Z,26.63
2018-03-23T20:11:12.725Z,27.53
2018-03-23T20:13:13.926Z,28.27
2018-03-23T20:15:15.166Z,35.15
2018-03-23T20:30:31.533Z,30.47
2018-03-23T20:32:32.508Z,29.70
2018-03-23T20:34:33.496Z,29.47
2018-03-23T20:36:34.447Z,27.80
2018-03-23T20:38:35.950Z,27.70
2018-03-23T20:40:38.552Z,27.20
2018-03-23T20:42:40.510Z,28.92
2018-03-23T20:44:41.472Z,28.83
2018-03-23T20:46:43.189Z,25.90
2018-03-23T20:48:44.205Z,25.50
2018-03-23T20:50:45.176Z,29.07
2018-03-23T20:52:46.137Z,28.03
2018-03-23T20:54:47.103Z,26.37
2018-03-23T20:56:48.158Z,29.97
2018-03-23T20:58:49.181Z,33.90
2018-03-23T21:00:50.516Z,29.63
2018-03-23T21:02:51.620Z,28.13
2018-03-23T21:04:52.805Z,27.00
2018-03-23T21:06:56.560Z,27.87
2018-03-23T21:08:57.624Z,25.80
2018-03-23T21:11:00.100Z,28.10
2018-03-23T21:13:02.795Z,26.33
2018-03-23T21:15:03.891Z,27.40
2018-03-23T21:17:05.722Z,26.73
2018-03-23T21:19:07.792Z,25.50
2018-03-23T21:21:12.038Z,32.78
2018-03-23T21:23:13.220Z,28.30
2018-03-23T21:25:14.232Z,30.13
2018-03-23T21:27:15.197Z,29.07
2018-03-23T21:29:16.216Z,26.53
2018-03-23T21:31:17.223Z,26.53
2018-03-23T21:33:18.226Z,26.87
2018-03-23T21:35:23.707Z,26.57
2018-03-23T21:37:24.729Z,26.47
2018-03-23T21:39:25.696Z,26.60
2018-03-23T21:41:27.026Z,26.23
2018-03-23T21:43:28.598Z,33.15
2018-03-23T21:45:29.675Z,27.13
2018-03-23T21:47:31.994Z,28.60
2018-03-23T21:49:33.067Z,27.60
2018-03-23T21:51:34.061Z,35.85
2018-03-23T21:53:35.032Z,28.33
2018-03-23T21:55:36.013Z,25.93
2018-03-23T21:57:38.432Z,28.20
2018-03-23T21:59:39.486Z,25.27
2018-03-23T22:01:41.205Z,28.57
2018-03-23T22:03:42.201Z,25.30
2018-03-23T22:05:45.235Z,28.95
2018-03-23T22:07:46.289Z,27.80
2018-03-23T22:09:47.984Z,28.57
2018-03-23T22:11:49.389Z,26.00
2018-03-23T22:13:50.443Z,25.87
2018-03-23T22:15:51.389Z,24.37
2018-03-23T22:17:53.528Z,27.77
2018-03-23T22:19:55.305Z,28.08
2018-03-23T22:21:56.275Z,28.00
2018-03-23T22:23:57.566Z,25.20
2018-03-23T22:25:58.945Z,24.77
2018-03-23T22:28:00.018Z,29.67
2018-03-23T22:30:01.487Z,28.20
2018-03-23T22:32:03.837Z,29.17
2018-03-23T22:34:04.867Z,25.30
2018-03-23T22:36:05.849Z,34.80
2018-03-23T22:38:06.840Z,30.27
2018-03-23T22:40:08.973Z,28.53
2018-03-23T22:42:09.984Z,27.47
2018-03-23T22:44:12.041Z,25.87
2018-03-23T22:46:13.231Z,27.77
2018-03-23T22:48:14.180Z,26.90
2018-03-23T22:50:15.193Z,30.40
2018-03-23T22:52:16.160Z,27.50
2018-03-23T22:54:17.864Z,26.60
2018-03-23T22:56:18.837Z,24.77
2018-03-23T22:58:34.629Z,35.15
2018-03-23T23:00:41.149Z,29.00
2018-03-23T23:02:42.170Z,29.13
2018-03-23T23:04:43.515Z,30.35
2018-03-23T23:06:45.288Z,27.47
2018-03-23T23:08:46.288Z,28.27
2018-03-23T23:10:47.298Z,27.20
2018-03-23T23:12:50.625Z,34.55
2018-03-23T23:14:52.753Z,30.23
2018-03-23T23:16:56.306Z,29.40
2018-03-23T23:18:57.387Z,28.50
2018-03-23T23:20:58.394Z,28.33
2018-03-23T23:23:00.144Z,28.17
2018-03-23T23:25:02.733Z,28.90
2018-03-23T23:27:10.474Z,28.57
2018-03-23T23:29:11.485Z,27.13
2018-03-23T23:31:13.241Z,26.80
2018-03-23T23:33:14.229Z,27.47
2018-03-23T23:35:16.636Z,26.57
2018-03-23T23:37:17.709Z,26.77
2018-03-23T23:39:18.684Z,26.93
2018-03-23T23:41:19.688Z,29.10
2018-03-23T23:43:20.738Z,28.50
2018-03-23T23:45:22.393Z,28.73
2018-03-23T23:47:23.433Z,25.90
2018-03-23T23:49:24.435Z,27.63
2018-03-23T23:51:25.385Z,28.47
2018-03-23T23:53:27.865Z,26.97
2018-03-23T23:55:28.899Z,26.08
2018-03-23T23:57:30.644Z,28.23
2018-03-23T23:59:32.400Z,28.20
